Time;durP1;ratioP1;P1;durP2;ratioP2;P2;SDS_P1;SDS_P2;PMS_P1;PMS_P2;Temp;Humidity;BMP_temperature;BMP_pressure;BME280_temperature;BME280_humidity;BME280_pressure;Samples;Min_cycle;Max_cycle;Signal;HPM_P1;HPM_P2
2022/06/27 00:00:33;;;;;;;6.62;4.87;;;;;;;22.17;60.44;100896.09;1737413;80;21443;-59
2022/06/27 00:03:01;;;;;;;6.90;5.05;;;;;;;22.19;60.46;100899.41;1734682;82;22522;-58
2022/06/27 00:05:27;;;;;;;6.90;4.95;;;;;;;22.26;60.38;100898.48;1729813;80;21454;-58
2022/06/27 00:07:54;;;;;;;7.25;5.12;;;;;;;22.35;60.46;100903.25;1730251;82;21455;-58
2022/06/27 00:10:21;;;;;;;6.80;4.85;;;;;;;22.36;60.73;100907.61;1729736;80;21087;-58
2022/06/27 00:12:48;;;;;;;7.55;5.28;;;;;;;22.35;60.69;100907.28;1724859;80;21157;-58
2022/06/27 00:15:14;;;;;;;6.50;5.05;;;;;;;22.34;60.60;100906.97;1738774;80;21091;-59
2022/06/27 00:17:41;;;;;;;8.83;5.50;;;;;;;22.30;60.66;100903.51;1741976;80;21082;-58
2022/06/27 00:20:09;;;;;;;8.13;5.22;;;;;;;22.23;60.73;100905.55;1736218;80;21178;-58
2022/06/27 00:22:37;;;;;;;6.25;4.90;;;;;;;22.16;60.78;100904.65;1736432;80;20993;-58
2022/06/27 00:25:06;;;;;;;8.10;5.45;;;;;;;22.11;60.88;100907.55;1726063;80;21128;-58
2022/06/27 00:27:33;;;;;;;8.35;5.50;;;;;;;22.02;61.01;100904.98;1740138;80;20988;-58
2022/06/27 00:29:59;;;;;;;6.53;5.00;;;;;;;;;;1746070;80;21173;-58
2022/06/27 00:32:26;;;;;;;7.58;4.53;;;;;;;22.01;60.94;100905.17;1746128;82;21664;-58
2022/06/27 00:34:53;;;;;;;6.55;4.62;;;;;;;22.02;60.93;100904.98;1738024;80;21121;-58
2022/06/27 00:37:20;;;;;;;7.62;5.12;;;;;;;21.98;60.96;100902.86;1737131;80;21835;-58
2022/06/27 00:39:47;;;;;;;7.70;5.30;;;;;;;21.91;61.04;100905.96;1719209;82;21111;-58
2022/06/27 00:42:13;;;;;;;6.47;5.10;;;;;;;21.84;61.22;100901.84;1716012;81;21079;-58
2022/06/27 00:44:42;;;;;;;6.12;4.72;;;;;;;21.80;61.39;100913.93;1725725;82;21127;-58
2022/06/27 00:47:11;;;;;;;9.55;4.97;;;;;;;21.75;61.47;100913.65;1735590;81;21609;-58
2022/06/27 00:49:38;;;;;;;6.83;5.58;;;;;;;21.72;61.53;100912.19;1664213;85;21148;-58
2022/06/27 00:52:08;;;;;;;7.45;5.50;;;;;;;21.68;61.56;100920.24;1663852;83;20992;-58
2022/06/27 00:54:36;;;;;;;7.42;5.60;;;;;;;21.62;61.75;100912.45;1675395;84;21039;-58
2022/06/27 00:57:03;;;;;;;7.30;4.72;;;;;;;21.61;61.91;100910.77;1706496;81;21541;-58
2022/06/27 00:59:31;;;;;;;7.30;5.45;;;;;;;21.66;62.05;100915.07;1712800;82;21075;-58
2022/06/27 01:01:58;;;;;;;6.58;5.00;;;;;;;21.70;62.08;100913.70;1729229;81;21204;-58
2022/06/27 01:04:25;;;;;;;7.70;5.08;;;;;;;21.71;62.20;100920.70;1714970;81;21078;-58
2022/06/27 01:06:51;;;;;;;6.87;5.45;;;;;;;21.72;62.29;100914.86;1725403;82;21106;-58
2022/06/27 01:09:22;;;;;;;6.90;5.28;;;;;;;21.70;62.33;100916.87;1724746;81;21098;-58
2022/06/27 01:11:49;;;;;;;8.63;5.55;;;;;;;21.68;62.18;100920.24;1720042;81;21110;-58
2022/06/27 01:14:16;;;;;;;6.95;5.10;;;;;;;21.65;62.25;100920.61;1729503;81;21277;-58
2022/06/27 01:16:43;;;;;;;8.28;5.50;;;;;;;21.62;62.40;100924.98;1723397;81;21066;-58
2022/06/27 01:19:13;;;;;;;7.47;5.08;;;;;;;21.58;62.62;100921.02;1719322;81;21086;-58
2022/06/27 01:21:46;;;;;;;7.17;4.92;;;;;;;21.56;62.86;100931.08;1719277;81;21015;-58
2022/06/27 01:24:13;;;;;;;6.40;4.47;;;;;;;21.59;63.00;100930.73;1700987;81;21094;-58
2022/06/27 01:26:43;;;;;;;7.60;5.30;;;;;;;21.61;62.92;100925.50;1735401;81;21280;-58
2022/06/27 01:29:09;;;;;;;7.28;5.17;;;;;;;21.62;63.08;100923.64;1737384;81;21043;-58
2022/06/27 01:31:37;;;;;;;7.83;4.70;;;;;;;21.60;62.99;100930.55;1732066;81;21004;-58
2022/06/27 01:34:04;;;;;;;7.80;5.53;;;;;;;21.62;62.81;100927.17;1722109;81;21125;-58
2022/06/27 01:36:43;;;;;;;8.13;5.47;;;;;;;21.62;62.75;100930.34;1730961;81;21146;-58
2022/06/27 01:39:20;;;;;;;9.55;6.17;;;;;;;21.59;62.65;100930.20;1734583;81;22601;-59
2022/06/27 01:41:56;;;;;;;9.25;5.22;;;;;;;21.52;62.88;100923.41;1759061;80;21003;-58
2022/06/27 01:44:25;;;;;;;6.65;5.15;;;;;;;21.48;63.50;100931.46;1759776;79;21475;-58
2022/06/27 01:47:05;;;;;;;7.58;4.65;;;;;;;21.46;63.90;100924.61;1751507;79;21052;-58
2022/06/27 01:49:33;;;;;;;7.90;5.28;;;;;;;21.49;63.87;100928.30;1764045;79;21048;-58
2022/06/27 01:52:03;;;;;;;7.10;5.03;;;;;;;21.50;63.57;100924.11;1757130;80;21172;-58
2022/06/27 01:54:30;;;;;;;6.35;5.33;;;;;;;21.50;63.50;100926.78;1748492;79;21584;-58
2022/06/27 01:56:57;;;;;;;9.40;5.60;;;;;;;21.51;63.31;100925.75;1752840;79;21064;-58
2022/06/27 01:59:28;;;;;;;12.10;6.03;;;;;;;21.50;63.15;100928.13;1752646;79;21058;-58
2022/06/27 02:02:04;;;;;;;8.25;5.37;;;;;;;21.46;63.12;100935.32;1748931;79;21745;-59
2022/06/27 02:04:31;;;;;;;10.78;6.03;;;;;;;21.40;63.73;100932.02;1755000;79;21756;-59
2022/06/27 02:06:59;;;;;;;7.58;5.05;;;;;;;21.38;64.48;100926.84;1758200;80;21106;-59
2022/06/27 02:09:26;;;;;;;10.75;5.58;;;;;;;21.42;64.83;100932.17;1767723;79;21047;-59
2022/06/27 02:11:54;;;;;;;7.30;5.37;;;;;;;21.44;64.95;100936.02;1764397;80;21004;-58
2022/06/27 02:14:22;;;;;;;6.90;5.28;;;;;;;21.46;65.24;100936.66;1748051;80;21081;-59
2022/06/27 02:16:49;;;;;;;9.70;5.65;;;;;;;21.45;65.23;100930.97;1755641;80;21744;-59
2022/06/27 02:19:17;;;;;;;8.70;6.30;;;;;;;21.42;65.14;100940.72;1752326;79;21046;-58
2022/06/27 02:21:44;;;;;;;7.05;5.10;;;;;;;21.37;65.26;100939.06;1762014;79;21525;-59
2022/06/27 02:24:12;;;;;;;8.23;5.53;;;;;;;21.34;65.31;100945.11;1751796;80;21038;-58
2022/06/27 02:26:39;;;;;;;8.88;5.78;;;;;;;21.30;65.24;100942.97;1745751;79;21070;-59
2022/06/27 02:29:06;;;;;;;7.80;5.90;;;;;;;21.28;65.17;100941.84;1745762;79;21112;-59
2022/06/27 02:31:33;;;;;;;10.82;6.12;;;;;;;21.34;65.06;100945.11;1757108;79;21040;-59
2022/06/27 02:34:01;;;;;;;7.17;5.53;;;;;;;21.36;64.92;100952.96;1695478;82;21115;-58
2022/06/27 02:36:37;;;;;;;7.37;6.00;;;;;;;21.33;64.86;100951.50;1763648;80;21129;-58
2022/06/27 02:39:03;;;;;;;6.85;5.78;;;;;;;21.31;64.71;100951.33;1749131;80;21071;-59
2022/06/27 02:41:38;;;;;;;7.60;5.75;;;;;;;21.24;64.79;100953.07;1767295;80;21660;-58
2022/06/27 02:44:11;;;;;;;9.43;6.05;;;;;;;21.20;64.97;100950.41;1764611;79;21497;-59
2022/06/27 02:46:40;;;;;;;10.18;6.37;;;;;;;21.17;65.21;100952.95;1768312;80;21522;-58
2022/06/27 02:49:07;;;;;;;7.33;5.47;;;;;;;21.21;65.28;100950.23;1752174;79;21605;-58
2022/06/27 02:51:43;;;;;;;7.08;5.25;;;;;;;21.30;65.25;100955.02;1740643;80;21576;-58
2022/06/27 02:54:20;;;;;;;8.40;5.97;;;;;;;21.37;65.15;100952.45;1754800;80;21693;-59
2022/06/27 02:57:15;;;;;;;7.37;5.50;;;;;;;21.39;65.04;100961.98;1750007;79;21053;-58
2022/06/27 02:59:42;;;;;;;9.63;5.85;;;;;;;21.41;65.09;100964.48;1751947;79;21770;-58
2022/06/27 03:02:11;;;;;;;7.80;5.28;;;;;;;21.48;64.95;100960.09;1766205;79;21086;-58
2022/06/27 03:04:52;;;;;;;7.95;5.40;;;;;;;21.56;64.65;100960.02;1733785;79;21046;-59
2022/06/27 03:07:18;;;;;;;8.63;6.22;;;;;;;21.63;64.40;100954.77;1704909;81;21102;-58
2022/06/27 03:09:46;;;;;;;6.35;5.17;;;;;;;21.65;64.25;100960.29;1756974;79;21075;-59
2022/06/27 03:12:14;;;;;;;8.40;6.03;;;;;;;21.67;63.99;100962.27;1724500;79;21581;-59
2022/06/27 03:14:40;;;;;;;8.65;5.75;;;;;;;21.70;63.78;100963.25;1768699;80;21498;-58
2022/06/27 03:17:07;;;;;;;7.40;5.78;;;;;;;21.74;63.73;100961.52;1757616;79;21652;-58
2022/06/27 03:19:35;;;;;;;7.22;5.15;;;;;;;21.77;63.63;100961.16;1751779;79;22011;-58
2022/06/27 03:22:04;;;;;;;8.30;5.83;;;;;;;21.76;63.58;100954.98;1711472;81;21075;-58
2022/06/27 03:24:33;;;;;;;8.05;5.92;;;;;;;21.75;63.76;100958.66;1757576;79;21494;-58
2022/06/27 03:26:59;;;;;;;7.40;5.25;;;;;;;21.77;63.74;100959.34;1748006;80;21157;-58
2022/06/27 03:29:26;;;;;;;8.30;5.45;;;;;;;21.82;63.68;100966.80;1757154;79;21133;-58
2022/06/27 03:31:55;;;;;;;9.73;5.80;;;;;;;21.83;63.55;100962.61;1754091;79;21275;-58
2022/06/27 03:34:23;;;;;;;8.63;4.80;;;;;;;21.88;63.39;100958.87;1752696;79;21047;-58
2022/06/27 03:36:51;;;;;;;7.50;5.53;;;;;;;22.00;63.15;100956.56;1754670;79;21683;-58
2022/06/27 03:39:20;;;;;;;7.50;5.47;;;;;;;22.15;62.59;100954.41;1761493;79;21035;-58
2022/06/27 03:41:47;;;;;;;8.23;5.85;;;;;;;22.22;62.36;100957.48;1762076;79;21098;-58
2022/06/27 03:44:14;;;;;;;7.25;5.75;;;;;;;22.28;62.13;100959.98;1769036;80;21110;-58
2022/06/27 03:46:48;;;;;;;10.55;5.83;;;;;;;22.35;61.73;100964.91;1766478;79;21046;-58
2022/06/27 03:52:10;;;;;;;7.00;5.50;;;;;;;22.40;61.48;100957.14;1768140;80;21038;-58
2022/06/27 03:54:37;;;;;;;8.40;5.67;;;;;;;22.45;61.05;100960.09;1763522;79;21097;-59
2022/06/27 03:57:05;;;;;;;8.93;5.47;;;;;;;22.54;60.83;100961.34;1764072;79;21126;-57
2022/06/27 03:59:31;;;;;;;6.90;5.45;;;;;;;22.59;60.61;100958.92;1765773;79;21144;-56
2022/06/27 04:01:58;;;;;;;7.90;5.83;;;;;;;22.62;60.59;100962.57;1766152;79;21284;-59
2022/06/27 04:04:26;;;;;;;8.90;5.42;;;;;;;22.65;60.36;100976.95;1768032;79;21523;-58
2022/06/27 04:06:53;;;;;;;7.47;6.17;;;;;;;22.66;60.72;100959.82;1762298;79;21494;-58
2022/06/27 04:09:20;;;;;;;7.03;5.15;;;;;;;22.65;60.58;100958.17;1767394;79;21297;-58
2022/06/27 04:11:46;;;;;;;7.53;5.47;;;;;;;22.64;60.53;100959.19;1762559;79;21562;-59
2022/06/27 04:14:15;;;;;;;8.58;5.45;;;;;;;22.63;60.65;100964.25;1763426;80;21038;-58
2022/06/27 04:16:41;;;;;;;7.20;5.58;;;;;;;22.66;60.69;100971.89;1764410;79;21035;-58
2022/06/27 04:19:20;;;;;;;6.90;4.97;;;;;;;22.76;60.81;100964.89;1762308;80;20995;-58
2022/06/27 04:22:05;;;;;;;7.80;5.63;;;;;;;22.82;60.78;100963.63;1767445;79;21901;-58
2022/06/27 04:24:49;;;;;;;8.05;5.78;;;;;;;22.92;59.85;100974.05;1692637;82;21070;-58
2022/06/27 04:27:19;;;;;;;8.95;5.65;;;;;;;23.02;59.49;100964.36;1738306;79;21549;-58
2022/06/27 04:29:48;;;;;;;7.85;5.45;;;;;;;23.08;59.20;100965.47;1766780;79;21071;-58
2022/06/27 04:32:19;;;;;;;6.90;5.30;;;;;;;23.12;59.29;100955.52;1767750;79;21019;-58
2022/06/27 04:34:46;;;;;;;7.12;5.60;;;;;;;23.14;59.16;100960.69;1766133;79;21105;-59
2022/06/27 04:37:13;;;;;;;9.35;6.10;;;;;;;23.16;59.06;100960.80;1766439;79;21055;-59
2022/06/27 04:39:43;;;;;;;9.10;5.37;;;;;;;23.17;58.86;100953.08;1757531;79;21611;-58
2022/06/27 04:42:11;;;;;;;7.35;5.80;;;;;;;23.17;58.97;100959.79;1761268;79;21039;-58
2022/06/27 04:44:43;;;;;;;8.30;6.10;;;;;;;23.17;58.90;100958.45;1753261;79;21082;-59
2022/06/27 04:47:12;;;;;;;7.00;5.90;;;;;;;23.18;58.47;100964.15;1750468;80;21057;-58
2022/06/27 04:49:42;;;;;;;7.53;5.70;;;;;;;23.20;58.32;100958.59;1756573;80;21086;-58
2022/06/27 04:52:11;;;;;;;8.33;5.47;;;;;;;23.23;58.26;100961.38;1754655;79;21012;-59
2022/06/27 04:54:38;;;;;;;7.33;5.05;;;;;;;23.31;58.73;100964.77;1754010;80;21063;-48
2022/06/27 04:57:06;;;;;;;7.80;5.10;;;;;;;23.40;58.42;100960.61;1751494;79;21105;-48
2022/06/27 04:59:34;;;;;;;7.10;5.37;;;;;;;23.46;58.40;100962.00;1759329;80;21110;-49
2022/06/27 05:02:04;;;;;;;7.12;5.67;;;;;;;23.51;57.82;100966.28;1755356;79;21054;-48
2022/06/27 05:04:30;;;;;;;9.53;5.80;;;;;;;23.55;57.67;100967.57;1753295;79;21101;-49
2022/06/27 05:06:57;;;;;;;10.58;6.62;;;;;;;23.60;57.84;100968.83;1760688;79;21043;-49
2022/06/27 05:09:24;;;;;;;8.93;6.30;;;;;;;23.64;57.93;100962.06;1753171;79;21133;-48
2022/06/27 05:11:54;;;;;;;7.33;6.50;;;;;;;23.68;57.79;100962.80;1762827;79;21012;-52
2022/06/27 05:14:22;;;;;;;9.05;6.08;;;;;;;23.69;57.79;100963.64;1753870;79;21572;-51
2022/06/27 05:16:50;;;;;;;7.80;6.17;;;;;;;23.70;58.31;100963.45;1751964;79;21094;-50
2022/06/27 05:19:18;;;;;;;10.60;6.00;;;;;;;23.79;58.04;100964.62;1761084;79;21091;-48
2022/06/27 05:21:45;;;;;;;8.35;6.03;;;;;;;23.89;58.30;100961.95;1757818;79;21089;-48
2022/06/27 05:24:12;;;;;;;9.25;5.67;;;;;;;24.00;58.10;100961.09;1750231;79;21510;-48
2022/06/27 05:26:39;;;;;;;7.72;6.08;;;;;;;24.05;58.05;100965.36;1739877;80;21668;-48
2022/06/27 05:29:06;;;;;;;9.18;6.70;;;;;;;24.10;57.62;100968.28;1754117;80;21026;-49
2022/06/27 05:31:33;;;;;;;7.58;5.30;;;;;;;24.15;57.63;100963.66;1761633;79;20959;-48
2022/06/27 05:33:59;;;;;;;7.08;5.72;;;;;;;24.20;57.57;100963.37;1698545;82;21015;-48
2022/06/27 05:36:26;;;;;;;7.30;5.62;;;;;;;24.24;57.64;100959.27;1716951;83;21081;-48
2022/06/27 05:38:53;;;;;;;7.50;6.00;;;;;;;24.32;57.55;100965.50;1715631;82;21066;-48
2022/06/27 05:41:21;;;;;;;8.98;6.67;;;;;;;24.37;57.68;100967.89;1714118;82;21102;-48
2022/06/27 05:43:47;;;;;;;10.82;5.70;;;;;;;24.46;57.67;100961.83;1636093;84;22398;-47
2022/06/27 05:46:15;;;;;;;6.95;4.90;;;;;;;24.55;57.56;100963.36;1730024;81;21568;-48
2022/06/27 05:48:44;;;;;;;7.50;5.58;;;;;;;24.72;57.17;100965.70;1721145;81;21432;-48
2022/06/27 05:51:20;;;;;;;7.37;5.08;;;;;;;24.89;55.90;100968.32;1708424;81;28301;-48
2022/06/27 05:53:48;;;;;;;7.15;5.85;;;;;;;25.02;55.40;100964.31;1719219;81;21050;-48
2022/06/27 05:56:15;;;;;;;7.47;4.78;;;;;;;25.10;55.43;100967.34;1720379;81;21549;-48
2022/06/27 05:58:43;;;;;;;7.50;5.55;;;;;;;25.18;55.50;100977.08;1660990;84;21078;-48
2022/06/27 06:01:10;;;;;;;6.45;5.22;;;;;;;25.21;55.06;100984.22;1720118;82;21094;-48
2022/06/27 06:03:39;;;;;;;8.00;4.75;;;;;;;25.25;55.16;100983.81;1714505;81;21020;-48
2022/06/27 06:06:06;;;;;;;6.55;5.37;;;;;;;25.28;55.14;100977.53;1713433;81;21070;-48
2022/06/27 06:08:36;;;;;;;6.70;5.03;;;;;;;25.32;55.40;100976.09;1711697;81;21079;-48
2022/06/27 06:11:03;;;;;;;7.83;5.60;;;;;;;25.36;55.17;100981.38;1730125;82;21066;-48
2022/06/27 06:13:30;;;;;;;7.00;5.03;;;;;;;25.40;55.41;100977.74;1723740;81;21078;-48
2022/06/27 06:15:59;;;;;;;6.08;5.08;;;;;;;25.46;55.54;100981.50;1663491;84;21074;-48
2022/06/27 06:18:27;;;;;;;6.60;4.90;;;;;;;25.53;55.53;100976.41;1735608;81;21086;-47
2022/06/27 06:20:55;;;;;;;6.72;5.28;;;;;;;25.63;55.17;100976.52;1737146;81;21074;-48
2022/06/27 06:23:24;;;;;;;7.50;5.20;;;;;;;25.70;55.32;100981.38;1737925;81;21481;-48
2022/06/27 06:25:50;;;;;;;7.15;5.60;;;;;;;25.77;55.53;100977.66;1715160;81;21233;-48
2022/06/27 06:28:17;;;;;;;6.40;5.12;;;;;;;25.85;55.17;100967.68;1718915;82;21122;-48
2022/06/27 06:30:44;;;;;;;7.70;4.87;;;;;;;25.89;54.77;100967.55;1714567;81;21100;-49
2022/06/27 06:33:11;;;;;;;7.37;5.22;;;;;;;25.91;53.45;100962.81;1652699;84;21221;-49
2022/06/27 06:35:38;;;;;;;7.95;5.17;;;;;;;25.88;53.33;100960.00;1735619;81;21063;-49
2022/06/27 06:38:05;;;;;;;7.17;4.80;;;;;;;25.87;53.59;100961.06;1732606;81;21061;-49
2022/06/27 06:40:32;;;;;;;8.45;6.00;;;;;;;25.86;53.06;100953.17;1733199;81;21078;-49
2022/06/27 06:43:03;;;;;;;7.62;5.58;;;;;;;25.85;53.24;100952.85;1735258;81;21031;-50
2022/06/27 06:45:45;;;;;;;8.33;5.50;;;;;;;25.85;53.34;100956.90;1752614;80;21118;-49
2022/06/27 06:48:17;;;;;;;7.42;4.92;;;;;;;25.87;53.04;100954.81;1758083;80;21008;-50
2022/06/27 06:50:43;;;;;;;6.30;4.53;;;;;;;25.90;53.00;100950.36;1755531;79;22114;-49
2022/06/27 06:53:09;;;;;;;7.45;5.00;;;;;;;25.95;53.05;100955.97;1758801;81;21483;-48
2022/06/27 06:55:36;;;;;;;6.92;4.90;;;;;;;25.98;52.24;100956.09;1761413;80;20996;-49
2022/06/27 06:58:03;;;;;;;7.15;4.83;;;;;;;26.01;52.18;100956.98;1749637;81;21019;-49
2022/06/27 07:00:30;;;;;;;6.45;4.95;;;;;;;26.04;51.82;100960.11;1748239;80;21066;-49
2022/06/27 07:02:58;;;;;;;6.08;4.22;;;;;;;26.08;51.73;100959.17;1757529;80;21219;-49
2022/06/27 07:05:25;;;;;;;6.75;5.15;;;;;;;26.12;51.94;100960.39;1751991;80;21051;-48
2022/06/27 07:07:53;;;;;;;7.67;5.40;;;;;;;26.19;52.04;100957.14;1749951;79;21051;-49
2022/06/27 07:10:21;;;;;;;7.22;5.85;;;;;;;26.24;51.66;100960.56;1759196;80;21545;-49
2022/06/27 07:12:48;;;;;;;7.55;4.87;;;;;;;26.27;51.33;100958.26;1748701;80;21063;-49
2022/06/27 07:15:15;;;;;;;6.97;5.15;;;;;;;26.32;51.33;100967.07;1762637;80;21128;-49
2022/06/27 07:17:48;;;;;;;7.08;5.17;;;;;;;26.38;51.55;100962.69;1764331;81;21105;-49
2022/06/27 07:20:18;;;;;;;7.83;5.10;;;;;;;26.44;51.51;100969.40;1764647;81;21110;-49
2022/06/27 07:22:46;;;;;;;6.92;4.65;;;;;;;26.51;51.31;100960.78;1755589;81;21182;-49
2022/06/27 07:25:12;;;;;;;7.15;4.53;;;;;;;26.58;50.88;100959.40;1753493;81;21049;-49
2022/06/27 07:27:41;;;;;;;5.55;4.33;;;;;;;26.65;50.79;100960.22;1754302;79;21118;-49
2022/06/27 07:30:09;;;;;;;5.90;4.45;;;;;;;26.70;50.88;100959.58;1755035;80;21094;-48
2022/06/27 07:32:39;;;;;;;6.75;4.85;;;;;;;26.75;50.25;100961.11;1747016;80;21043;-48
2022/06/27 07:35:11;;;;;;;8.10;5.28;;;;;;;26.79;50.52;100959.62;1745514;81;21004;-48
2022/06/27 07:37:44;;;;;;;6.67;4.78;;;;;;;26.84;50.77;100962.49;1750530;81;21694;-48
2022/06/27 07:40:09;;;;;;;6.33;4.83;;;;;;;26.91;50.62;100964.34;1757685;81;21123;-48
2022/06/27 07:42:37;;;;;;;6.20;4.83;;;;;;;26.95;50.36;100966.89;1766522;80;21593;-48
2022/06/27 07:45:06;;;;;;;6.85;5.30;;;;;;;26.99;50.58;100966.25;1752165;80;20976;-48
2022/06/27 07:47:33;;;;;;;6.67;4.58;;;;;;;27.07;50.15;100967.88;1761029;79;21036;-48
2022/06/27 07:50:00;;;;;;;8.18;4.78;;;;;;;27.12;49.97;100969.90;1746898;80;21003;-49
2022/06/27 07:52:26;;;;;;;8.53;5.28;;;;;;;27.19;50.01;100963.41;1754555;79;21194;-48
2022/06/27 07:54:53;;;;;;;8.18;4.45;;;;;;;27.27;49.32;100965.03;1765102;80;21554;-48
2022/06/27 07:57:20;;;;;;;7.00;4.95;;;;;;;27.36;49.56;100965.61;1758544;79;21550;-49
2022/06/27 07:59:47;;;;;;;7.55;5.28;;;;;;;27.42;48.43;100964.74;1737608;80;21070;-49
2022/06/27 08:02:14;;;;;;;7.37;4.58;;;;;;;27.48;49.50;100962.48;1757902;81;21130;-48
2022/06/27 08:04:42;;;;;;;6.75;4.05;;;;;;;27.54;49.04;100962.97;1749673;79;21122;-48
2022/06/27 08:07:08;;;;;;;7.60;4.67;;;;;;;27.64;48.73;100961.12;1760471;79;21035;-49
2022/06/27 08:09:38;;;;;;;6.55;5.08;;;;;;;27.71;48.35;100960.52;1755968;80;21051;-48
2022/06/27 08:12:04;;;;;;;7.53;4.28;;;;;;;27.77;48.23;100964.20;1758389;80;21102;-48
2022/06/27 08:14:31;;;;;;;8.50;4.28;;;;;;;27.84;48.00;100965.48;1749483;80;21067;-48
2022/06/27 08:17:00;;;;;;;7.62;5.03;;;;;;;27.95;47.63;100962.90;1751143;80;21146;-48
2022/06/27 08:19:26;;;;;;;6.95;4.17;;;;;;;28.04;47.80;100967.52;1764366;79;21070;-48
2022/06/27 08:21:53;;;;;;;5.90;4.10;;;;;;;28.10;47.25;100963.08;1761201;79;21467;-48
2022/06/27 08:24:19;;;;;;;5.75;4.10;;;;;;;28.18;47.42;100962.77;1759982;80;22296;-49
2022/06/27 08:26:46;;;;;;;7.22;4.55;;;;;;;28.28;47.52;100971.19;1768203;80;21509;-49
2022/06/27 08:29:15;;;;;;;5.75;4.05;;;;;;;28.40;46.97;100959.61;1760879;80;21228;-48
2022/06/27 08:31:44;;;;;;;7.28;4.45;;;;;;;28.51;46.94;100961.02;1755862;80;21066;-48
2022/06/27 08:34:13;;;;;;;7.83;4.15;;;;;;;28.61;46.72;100955.06;1746151;79;21051;-49
2022/06/27 08:36:40;;;;;;;6.37;3.90;;;;;;;28.72;46.91;100954.30;1746984;79;21511;-49
2022/06/27 08:39:17;;;;;;;6.03;4.08;;;;;;;28.82;46.66;100952.94;1745039;81;21003;-49
2022/06/27 08:41:47;;;;;;;7.60;4.20;;;;;;;28.91;45.53;100952.89;1753908;79;22386;-49
2022/06/27 08:44:14;;;;;;;8.10;4.30;;;;;;;29.03;45.05;100952.92;1757059;79;21055;-49
2022/06/27 08:46:45;;;;;;;6.30;3.65;;;;;;;29.13;44.57;100951.00;1755375;80;21138;-49
2022/06/27 08:49:10;;;;;;;7.25;3.98;;;;;;;29.24;44.10;100949.70;1763229;80;21787;-49
2022/06/27 08:51:37;;;;;;;6.53;3.58;;;;;;;29.34;43.22;100949.13;1725815;79;21038;-49
2022/06/27 08:54:04;;;;;;;6.78;3.67;;;;;;;29.38;42.43;100953.02;1755326;80;21058;-49
2022/06/27 08:56:31;;;;;;;7.75;3.85;;;;;;;29.42;42.19;100947.94;1758017;79;21074;-49
2022/06/27 08:59:02;;;;;;;6.90;3.60;;;;;;;29.43;41.79;100946.89;1747803;80;21066;-49
2022/06/27 09:01:30;;;;;;;6.58;3.58;;;;;;;29.42;41.69;100953.36;1766566;79;21087;-49
2022/06/27 09:04:06;;;;;;;5.15;3.58;;;;;;;29.41;42.48;100948.48;1751689;79;21635;-49
2022/06/27 09:06:48;;;;;;;5.05;3.65;;;;;;;29.48;42.90;100946.20;1760596;79;21111;-49
2022/06/27 09:09:16;;;;;;;5.75;3.90;;;;;;;29.58;42.66;100947.25;1771539;80;21056;-48
2022/06/27 09:11:50;;;;;;;4.97;3.60;;;;;;;29.69;42.95;100946.13;1759699;79;21046;-49
2022/06/27 09:14:43;;;;;;;6.30;3.70;;;;;;;29.77;42.04;100948.00;1770330;80;21145;-48
2022/06/27 09:17:14;;;;;;;7.00;3.87;;;;;;;29.80;42.03;100946.14;1759190;80;21101;-48
2022/06/27 09:19:49;;;;;;;6.85;3.95;;;;;;;29.87;41.89;100943.85;1746567;80;21140;-49
2022/06/27 09:22:17;;;;;;;6.70;4.10;;;;;;;29.92;42.51;100945.31;1755322;79;21055;-49
2022/06/27 09:25:13;;;;;;;5.28;3.40;;;;;;;29.96;42.12;100934.30;1757563;79;21030;-49
2022/06/27 09:27:41;;;;;;;7.90;3.85;;;;;;;29.96;42.42;100931.58;1753732;80;21188;-48
2022/06/27 09:30:22;;;;;;;5.65;3.83;;;;;;;30.00;42.40;100934.09;1753660;80;21026;-48
2022/06/27 09:32:53;;;;;;;7.45;4.10;;;;;;;30.03;41.93;100933.62;1750414;79;21108;-48
2022/06/27 09:35:36;;;;;;;5.83;3.98;;;;;;;30.02;42.25;100937.39;1751084;80;21055;-49
2022/06/27 09:38:07;;;;;;;5.33;3.85;;;;;;;30.00;42.86;100940.34;1754011;79;21062;-48
2022/06/27 09:40:36;;;;;;;5.67;3.70;;;;;;;29.98;42.77;100932.98;1752775;79;21122;-47
2022/06/27 09:43:03;;;;;;;7.35;3.67;;;;;;;29.98;42.08;100934.34;1749215;79;21067;-48
2022/06/27 09:45:31;;;;;;;9.28;4.28;;;;;;;29.96;42.48;100931.05;1750595;79;21229;-47
2022/06/27 09:48:04;;;;;;;5.47;3.67;;;;;;;29.95;42.18;100920.42;1755256;79;21129;-48
2022/06/27 09:50:34;;;;;;;6.10;3.50;;;;;;;29.90;41.71;100916.25;1758483;80;21066;-48
2022/06/27 09:53:01;;;;;;;5.78;3.72;;;;;;;29.83;41.81;100921.27;1753212;80;21138;-47
2022/06/27 09:55:29;;;;;;;5.33;3.27;;;;;;;29.79;41.75;100915.19;1752617;80;21067;-47
2022/06/27 10:09:29;;;;;;;6.03;3.67;;;;;;;30.80;39.71;100909.86;1734647;81;22793;-48
2022/06/27 10:12:32;;;;;;;7.65;3.75;;;;;;;30.92;39.92;100904.66;1701046;82;21045;-48
2022/06/27 10:15:16;;;;;;;4.95;3.45;;;;;;;31.05;39.53;100906.27;1700199;82;21142;-48
2022/06/27 10:17:50;;;;;;;5.45;3.50;;;;;;;31.16;39.24;100900.45;1692616;82;21102;-47
2022/06/27 10:20:31;;;;;;;6.22;3.58;;;;;;;31.24;38.68;100904.66;1690447;83;22173;-48
2022/06/27 10:23:17;;;;;;;5.17;3.70;;;;;;;31.23;37.23;100898.92;1688671;82;22515;-48
2022/06/27 10:25:46;;;;;;;5.33;3.47;;;;;;;31.16;37.97;100901.80;1693383;82;21110;-48
2022/06/27 10:28:16;;;;;;;5.72;3.05;;;;;;;31.14;38.26;100908.03;1688950;82;21600;-48
2022/06/27 10:30:59;;;;;;;6.33;4.03;;;;;;;31.12;37.94;100902.02;1695639;82;21097;-49
2022/06/27 10:33:31;;;;;;;5.12;2.90;;;;;;;31.15;38.41;100901.50;1705811;82;21056;-48
2022/06/27 10:36:02;;;;;;;5.65;3.10;;;;;;;31.18;37.65;100900.20;1706326;82;21539;-50
2022/06/27 10:38:37;;;;;;;5.15;3.20;;;;;;;31.25;36.19;100894.05;1690375;82;21117;-48
2022/06/27 10:41:05;;;;;;;6.37;2.98;;;;;;;31.27;35.17;100902.27;1704119;82;21166;-49
2022/06/27 10:43:56;;;;;;;4.72;3.20;;;;;;;31.33;35.51;100899.62;1705387;83;21539;-49
2022/06/27 10:46:29;;;;;;;4.25;2.67;;;;;;;31.40;35.19;100898.90;1703556;82;21144;-50
2022/06/27 10:48:57;;;;;;;5.55;3.20;;;;;;;31.46;35.33;100893.83;1697414;82;21141;-49
2022/06/27 10:51:36;;;;;;;5.78;3.00;;;;;;;31.56;35.82;100895.91;1696784;82;21037;-50
2022/06/27 10:54:11;;;;;;;5.42;3.00;;;;;;;31.67;35.52;100892.23;1692625;82;21157;-49
2022/06/27 10:56:39;;;;;;;;;;;;;;;31.73;34.15;100896.68;1715185;82;21086;-48
2022/06/27 10:59:16;;;;;;;6.08;2.92;;;;;;;31.76;32.99;100897.54;1699327;82;20183;-50
2022/06/27 11:01:52;;;;;;;4.87;2.47;;;;;;;31.79;32.71;100888.03;1714111;82;21149;-49
2022/06/27 11:04:32;;;;;;;4.83;2.60;;;;;;;31.78;33.02;100893.21;1703641;82;21089;-49
2022/06/27 11:07:06;;;;;;;4.33;2.42;;;;;;;31.80;32.73;100892.42;1702964;82;21143;-49
2022/06/27 11:09:46;;;;;;;5.57;3.17;;;;;;;31.86;32.71;100884.61;1702028;82;21120;-48
2022/06/27 11:12:15;;;;;;;4.20;2.60;;;;;;;31.88;32.17;100894.70;1690836;83;21085;-49
2022/06/27 11:14:57;;;;;;;4.90;2.87;;;;;;;31.86;32.13;100888.70;1697748;82;21113;-48
2022/06/27 11:17:35;;;;;;;5.65;2.80;;;;;;;31.83;31.63;100889.20;1708722;82;21616;-48
2022/06/27 11:20:17;;;;;;;5.00;2.90;;;;;;;31.78;31.77;100891.30;1717187;83;21115;-48
2022/06/27 11:22:46;;;;;;;5.05;3.10;;;;;;;31.74;31.72;100884.73;1712547;82;22433;-48
2022/06/27 11:25:12;;;;;;;5.75;3.17;;;;;;;31.73;31.78;100885.80;1667347;84;21149;-48
2022/06/27 11:27:54;;;;;;;5.05;3.30;;;;;;;31.69;32.02;100881.11;1672862;84;21549;-49
2022/06/27 11:33:27;;;;;;;5.10;3.08;;;;;;;31.86;33.60;100875.09;1700464;82;21141;-49
2022/06/27 11:35:54;;;;;;;4.83;2.85;;;;;;;32.02;33.34;100877.45;1702508;82;21128;-49
2022/06/27 11:38:25;;;;;;;5.47;3.15;;;;;;;32.15;32.92;100873.00;1698660;82;21073;-51
2022/06/27 11:41:06;;;;;;;6.55;3.10;;;;;;;32.26;31.54;100869.84;1715217;83;21082;-49
2022/06/27 11:43:50;;;;;;;4.92;3.00;;;;;;;32.27;31.96;100868.77;1721961;82;21102;-48
2022/06/27 11:46:31;;;;;;;5.10;3.30;;;;;;;32.30;32.39;100881.06;1700449;82;21203;-49
2022/06/27 11:49:08;;;;;;;5.30;3.45;;;;;;;32.26;32.00;100874.47;1704299;82;21023;-48
2022/06/27 11:51:47;;;;;;;6.47;3.60;;;;;;;32.21;32.13;100869.78;1714287;82;21086;-48
2022/06/27 11:54:18;;;;;;;8.40;2.75;;;;;;;32.20;32.45;100868.16;1669016;84;21146;-49
2022/06/27 11:56:46;;;;;;;5.35;3.90;;;;;;;32.28;32.90;100868.22;1656405;84;21179;-48